sensor_id;sensor_type;location;lat;lon;timestamp;temperature;humidity
53274;DHT22;39163;52.696;6.758;2024-02-26T00:00:39;3.60;99.90
53274;DHT22;39163;52.696;6.758;2024-02-26T00:03:06;3.60;99.90
53274;DHT22;39163;52.696;6.758;2024-02-26T00:05:33;3.60;99.90
53274;DHT22;39163;52.696;6.758;2024-02-26T00:08:00;3.60;99.90
53274;DHT22;39163;52.696;6.758;2024-02-26T00:10:27;3.60;99.90
53274;DHT22;39163;52.696;6.758;2024-02-26T00:12:54;3.60;99.90
53274;DHT22;39163;52.696;6.758;2024-02-26T00:15:21;3.60;99.90
53274;DHT22;39163;52.696;6.758;2024-02-26T00:17:50;3.60;99.90
53274;DHT22;39163;52.696;6.758;2024-02-26T00:20:16;3.60;99.90
53274;DHT22;39163;52.696;6.758;2024-02-26T00:22:43;3.50;99.90
53274;DHT22;39163;52.696;6.758;2024-02-26T00:25:10;3.50;99.90
53274;DHT22;39163;52.696;6.758;2024-02-26T00:27:38;3.50;99.90
53274;DHT22;39163;52.696;6.758;2024-02-26T00:30:07;3.50;99.90
53274;DHT22;39163;52.696;6.758;2024-02-26T00:32:34;3.50;99.90
53274;DHT22;39163;52.696;6.758;2024-02-26T00:35:02;3.50;99.90
53274;DHT22;39163;52.696;6.758;2024-02-26T00:37:29;3.50;99.90
53274;DHT22;39163;52.696;6.758;2024-02-26T00:39:56;3.50;99.90
53274;DHT22;39163;52.696;6.758;2024-02-26T00:42:23;3.50;99.90
53274;DHT22;39163;52.696;6.758;2024-02-26T00:44:50;3.50;99.90
53274;DHT22;39163;52.696;6.758;2024-02-26T00:47:17;3.50;99.90
53274;DHT22;39163;52.696;6.758;2024-02-26T00:49:44;3.50;99.90
53274;DHT22;39163;52.696;6.758;2024-02-26T00:52:12;3.40;99.90
53274;DHT22;39163;52.696;6.758;2024-02-26T00:54:39;3.30;99.90
53274;DHT22;39163;52.696;6.758;2024-02-26T00:57:06;3.30;99.90
53274;DHT22;39163;52.696;6.758;2024-02-26T00:59:33;3.30;99.90
53274;DHT22;39163;52.696;6.758;2024-02-26T01:02:00;3.20;99.90
53274;DHT22;39163;52.696;6.758;2024-02-26T01:04:28;3.20;99.90
53274;DHT22;39163;52.696;6.758;2024-02-26T01:06:53;3.20;99.90
53274;DHT22;39163;52.696;6.758;2024-02-26T01:09:22;3.20;99.90
53274;DHT22;39163;52.696;6.758;2024-02-26T01:11:49;3.20;99.90
53274;DHT22;39163;52.696;6.758;2024-02-26T01:14:16;3.20;99.90
53274;DHT22;39163;52.696;6.758;2024-02-26T01:16:42;3.20;99.90
53274;DHT22;39163;52.696;6.758;2024-02-26T01:19:09;3.30;99.90
53274;DHT22;39163;52.696;6.758;2024-02-26T01:21:36;3.30;99.90
53274;DHT22;39163;52.696;6.758;2024-02-26T01:24:04;3.30;99.90
53274;DHT22;39163;52.696;6.758;2024-02-26T01:26:32;3.30;99.90
53274;DHT22;39163;52.696;6.758;2024-02-26T01:28:59;3.30;99.90
53274;DHT22;39163;52.696;6.758;2024-02-26T01:31:26;3.30;99.90
53274;DHT22;39163;52.696;6.758;2024-02-26T01:33:53;3.30;99.90
53274;DHT22;39163;52.696;6.758;2024-02-26T01:36:20;3.30;99.90
53274;DHT22;39163;52.696;6.758;2024-02-26T01:38:46;3.30;99.90
53274;DHT22;39163;52.696;6.758;2024-02-26T01:41:14;3.30;99.90
53274;DHT22;39163;52.696;6.758;2024-02-26T01:43:42;3.30;99.90
53274;DHT22;39163;52.696;6.758;2024-02-26T01:46:11;3.30;99.90
53274;DHT22;39163;52.696;6.758;2024-02-26T01:48:40;3.30;99.90
53274;DHT22;39163;52.696;6.758;2024-02-26T01:51:08;3.30;99.90
53274;DHT22;39163;52.696;6.758;2024-02-26T01:53:35;3.30;99.90
53274;DHT22;39163;52.696;6.758;2024-02-26T01:56:02;3.30;99.90
53274;DHT22;39163;52.696;6.758;2024-02-26T01:58:30;3.30;99.90
53274;DHT22;39163;52.696;6.758;2024-02-26T02:00:59;3.30;99.90
53274;DHT22;39163;52.696;6.758;2024-02-26T02:03:26;3.30;99.90
53274;DHT22;39163;52.696;6.758;2024-02-26T02:05:53;3.30;99.90
53274;DHT22;39163;52.696;6.758;2024-02-26T02:08:20;3.30;99.90
53274;DHT22;39163;52.696;6.758;2024-02-26T02:10:49;3.20;99.90
53274;DHT22;39163;52.696;6.758;2024-02-26T02:13:16;3.20;99.90
53274;DHT22;39163;52.696;6.758;2024-02-26T02:15:43;3.20;99.90
53274;DHT22;39163;52.696;6.758;2024-02-26T02:18:11;3.20;99.90
53274;DHT22;39163;52.696;6.758;2024-02-26T02:20:39;3.20;99.90
53274;DHT22;39163;52.696;6.758;2024-02-26T02:23:06;3.20;99.90
53274;DHT22;39163;52.696;6.758;2024-02-26T02:25:33;3.20;99.90
53274;DHT22;39163;52.696;6.758;2024-02-26T02:28:01;3.20;99.90
53274;DHT22;39163;52.696;6.758;2024-02-26T02:30:29;3.20;99.90
53274;DHT22;39163;52.696;6.758;2024-02-26T02:32:57;3.20;99.90
53274;DHT22;39163;52.696;6.758;2024-02-26T02:35:25;3.20;99.90
53274;DHT22;39163;52.696;6.758;2024-02-26T02:37:54;3.20;99.90
53274;DHT22;39163;52.696;6.758;2024-02-26T02:40:21;3.20;99.90
53274;DHT22;39163;52.696;6.758;2024-02-26T02:42:48;3.20;99.90
53274;DHT22;39163;52.696;6.758;2024-02-26T02:45:15;3.20;99.90
53274;DHT22;39163;52.696;6.758;2024-02-26T02:47:42;3.20;99.90
53274;DHT22;39163;52.696;6.758;2024-02-26T02:50:10;3.30;99.90
53274;DHT22;39163;52.696;6.758;2024-02-26T02:52:37;3.20;99.90
53274;DHT22;39163;52.696;6.758;2024-02-26T02:55:06;3.30;99.90
53274;DHT22;39163;52.696;6.758;2024-02-26T02:57:33;3.20;99.90
53274;DHT22;39163;52.696;6.758;2024-02-26T03:00:00;3.30;99.90
53274;DHT22;39163;52.696;6.758;2024-02-26T03:02:29;3.20;99.90
53274;DHT22;39163;52.696;6.758;2024-02-26T03:04:56;3.30;99.90
53274;DHT22;39163;52.696;6.758;2024-02-26T03:07:23;3.30;99.90
53274;DHT22;39163;52.696;6.758;2024-02-26T03:09:50;3.30;99.90
53274;DHT22;39163;52.696;6.758;2024-02-26T03:12:18;3.20;99.90
53274;DHT22;39163;52.696;6.758;2024-02-26T03:14:45;3.30;99.90
53274;DHT22;39163;52.696;6.758;2024-02-26T03:17:12;3.30;99.90
53274;DHT22;39163;52.696;6.758;2024-02-26T03:19:39;3.30;99.90
53274;DHT22;39163;52.696;6.758;2024-02-26T03:22:06;3.30;99.90
53274;DHT22;39163;52.696;6.758;2024-02-26T03:24:33;3.30;99.90
53274;DHT22;39163;52.696;6.758;2024-02-26T03:27:00;3.30;99.90
53274;DHT22;39163;52.696;6.758;2024-02-26T03:29:29;3.30;99.90
53274;DHT22;39163;52.696;6.758;2024-02-26T03:31:56;3.30;99.90
53274;DHT22;39163;52.696;6.758;2024-02-26T03:34:23;3.30;99.90
53274;DHT22;39163;52.696;6.758;2024-02-26T03:36:51;3.30;99.90
53274;DHT22;39163;52.696;6.758;2024-02-26T03:39:18;3.40;99.90
53274;DHT22;39163;52.696;6.758;2024-02-26T03:41:45;3.40;99.90
53274;DHT22;39163;52.696;6.758;2024-02-26T03:44:11;3.40;99.90
53274;DHT22;39163;52.696;6.758;2024-02-26T03:46:40;3.40;99.90
53274;DHT22;39163;52.696;6.758;2024-02-26T03:49:08;3.40;99.90
53274;DHT22;39163;52.696;6.758;2024-02-26T03:51:35;3.50;99.90
53274;DHT22;39163;52.696;6.758;2024-02-26T03:54:02;3.50;99.90
53274;DHT22;39163;52.696;6.758;2024-02-26T03:56:29;3.50;99.90
53274;DHT22;39163;52.696;6.758;2024-02-26T03:58:56;3.50;99.90
53274;DHT22;39163;52.696;6.758;2024-02-26T04:01:24;3.50;99.90
53274;DHT22;39163;52.696;6.758;2024-02-26T04:03:53;3.50;99.90
53274;DHT22;39163;52.696;6.758;2024-02-26T04:06:20;3.50;99.90
53274;DHT22;39163;52.696;6.758;2024-02-26T04:08:48;3.50;99.90
53274;DHT22;39163;52.696;6.758;2024-02-26T04:11:15;3.50;99.90
53274;DHT22;39163;52.696;6.758;2024-02-26T04:13:43;3.50;99.90
53274;DHT22;39163;52.696;6.758;2024-02-26T04:16:11;3.50;99.90
53274;DHT22;39163;52.696;6.758;2024-02-26T04:18:38;3.50;99.90
53274;DHT22;39163;52.696;6.758;2024-02-26T04:21:06;3.50;99.90
53274;DHT22;39163;52.696;6.758;2024-02-26T04:23:33;3.60;99.90
53274;DHT22;39163;52.696;6.758;2024-02-26T04:26:00;3.60;99.90
53274;DHT22;39163;52.696;6.758;2024-02-26T04:28:27;3.60;99.90
53274;DHT22;39163;52.696;6.758;2024-02-26T04:30:55;3.60;99.90
53274;DHT22;39163;52.696;6.758;2024-02-26T04:33:22;3.60;99.90
53274;DHT22;39163;52.696;6.758;2024-02-26T04:35:49;3.60;99.90
53274;DHT22;39163;52.696;6.758;2024-02-26T04:38:17;3.50;99.90
53274;DHT22;39163;52.696;6.758;2024-02-26T04:40:44;3.60;99.90
53274;DHT22;39163;52.696;6.758;2024-02-26T04:43:11;3.60;99.90
53274;DHT22;39163;52.696;6.758;2024-02-26T04:45:38;3.60;99.90
53274;DHT22;39163;52.696;6.758;2024-02-26T04:48:06;3.60;99.90
53274;DHT22;39163;52.696;6.758;2024-02-26T04:50:33;3.70;99.90
53274;DHT22;39163;52.696;6.758;2024-02-26T04:53:00;3.60;99.90
53274;DHT22;39163;52.696;6.758;2024-02-26T04:55:28;3.70;99.90
53274;DHT22;39163;52.696;6.758;2024-02-26T04:57:55;3.70;99.90
53274;DHT22;39163;52.696;6.758;2024-02-26T05:00:22;3.70;99.90
53274;DHT22;39163;52.696;6.758;2024-02-26T05:02:49;3.70;99.90
53274;DHT22;39163;52.696;6.758;2024-02-26T05:05:16;3.70;99.90
53274;DHT22;39163;52.696;6.758;2024-02-26T05:07:44;3.70;99.90
53274;DHT22;39163;52.696;6.758;2024-02-26T05:10:11;3.70;99.90
53274;DHT22;39163;52.696;6.758;2024-02-26T05:12:39;3.70;99.90
53274;DHT22;39163;52.696;6.758;2024-02-26T05:15:09;3.70;99.90
53274;DHT22;39163;52.696;6.758;2024-02-26T05:17:36;3.80;99.90
53274;DHT22;39163;52.696;6.758;2024-02-26T05:20:03;3.80;99.90
53274;DHT22;39163;52.696;6.758;2024-02-26T05:22:33;3.80;99.90
53274;DHT22;39163;52.696;6.758;2024-02-26T05:25:00;3.80;99.90
53274;DHT22;39163;52.696;6.758;2024-02-26T05:27:27;3.80;99.90
53274;DHT22;39163;52.696;6.758;2024-02-26T05:29:55;3.90;99.90
53274;DHT22;39163;52.696;6.758;2024-02-26T05:32:22;3.90;99.90
53274;DHT22;39163;52.696;6.758;2024-02-26T05:34:49;3.90;99.90
53274;DHT22;39163;52.696;6.758;2024-02-26T05:37:16;3.90;99.90
53274;DHT22;39163;52.696;6.758;2024-02-26T05:39:43;3.90;99.90
53274;DHT22;39163;52.696;6.758;2024-02-26T05:42:10;3.90;99.90
53274;DHT22;39163;52.696;6.758;2024-02-26T05:44:37;4.00;99.90
53274;DHT22;39163;52.696;6.758;2024-02-26T05:47:05;4.00;99.90
53274;DHT22;39163;52.696;6.758;2024-02-26T05:49:32;4.00;99.90
53274;DHT22;39163;52.696;6.758;2024-02-26T05:51:59;4.00;99.90
53274;DHT22;39163;52.696;6.758;2024-02-26T05:54:26;4.00;99.90
53274;DHT22;39163;52.696;6.758;2024-02-26T05:56:53;4.10;99.90
53274;DHT22;39163;52.696;6.758;2024-02-26T05:59:20;4.10;99.90
53274;DHT22;39163;52.696;6.758;2024-02-26T06:01:47;4.10;99.90
53274;DHT22;39163;52.696;6.758;2024-02-26T06:04:15;4.10;99.90
53274;DHT22;39163;52.696;6.758;2024-02-26T06:06:44;4.10;99.90
53274;DHT22;39163;52.696;6.758;2024-02-26T06:09:11;4.10;99.90
53274;DHT22;39163;52.696;6.758;2024-02-26T06:11:38;4.10;99.90
53274;DHT22;39163;52.696;6.758;2024-02-26T06:14:05;4.10;99.90
53274;DHT22;39163;52.696;6.758;2024-02-26T06:16:32;4.10;99.90
53274;DHT22;39163;52.696;6.758;2024-02-26T06:19:00;4.10;99.90
53274;DHT22;39163;52.696;6.758;2024-02-26T06:21:28;4.10;99.90
53274;DHT22;39163;52.696;6.758;2024-02-26T06:23:55;4.10;99.90
53274;DHT22;39163;52.696;6.758;2024-02-26T06:26:22;4.10;99.90
53274;DHT22;39163;52.696;6.758;2024-02-26T06:28:49;4.10;99.90
53274;DHT22;39163;52.696;6.758;2024-02-26T06:31:18;4.10;99.90
53274;DHT22;39163;52.696;6.758;2024-02-26T06:33:44;4.10;99.90
53274;DHT22;39163;52.696;6.758;2024-02-26T06:36:11;4.10;99.90
53274;DHT22;39163;52.696;6.758;2024-02-26T06:38:40;4.10;99.90
53274;DHT22;39163;52.696;6.758;2024-02-26T06:41:07;4.10;99.90
53274;DHT22;39163;52.696;6.758;2024-02-26T06:43:34;4.10;99.90
53274;DHT22;39163;52.696;6.758;2024-02-26T06:46:01;4.10;99.90
53274;DHT22;39163;52.696;6.758;2024-02-26T06:48:28;4.10;99.90
53274;DHT22;39163;52.696;6.758;2024-02-26T06:50:55;4.10;99.90
53274;DHT22;39163;52.696;6.758;2024-02-26T06:53:22;4.10;99.90
53274;DHT22;39163;52.696;6.758;2024-02-26T06:55:50;4.10;99.90
53274;DHT22;39163;52.696;6.758;2024-02-26T06:58:17;4.10;99.90
53274;DHT22;39163;52.696;6.758;2024-02-26T07:00:44;4.10;99.90
53274;DHT22;39163;52.696;6.758;2024-02-26T07:03:11;4.20;99.90
53274;DHT22;39163;52.696;6.758;2024-02-26T07:05:39;4.20;99.90
53274;DHT22;39163;52.696;6.758;2024-02-26T07:08:07;4.20;99.90
53274;DHT22;39163;52.696;6.758;2024-02-26T07:10:34;4.20;99.90
53274;DHT22;39163;52.696;6.758;2024-02-26T07:13:02;4.20;99.90
53274;DHT22;39163;52.696;6.758;2024-02-26T07:15:29;4.20;99.90
53274;DHT22;39163;52.696;6.758;2024-02-26T07:17:56;4.20;99.90
53274;DHT22;39163;52.696;6.758;2024-02-26T07:20:28;4.20;99.90
53274;DHT22;39163;52.696;6.758;2024-02-26T07:22:56;4.20;99.90
53274;DHT22;39163;52.696;6.758;2024-02-26T07:25:23;4.20;99.90
53274;DHT22;39163;52.696;6.758;2024-02-26T07:27:50;4.30;99.90
53274;DHT22;39163;52.696;6.758;2024-02-26T07:30:18;4.30;99.90
53274;DHT22;39163;52.696;6.758;2024-02-26T07:32:45;4.30;99.90
53274;DHT22;39163;52.696;6.758;2024-02-26T07:35:12;4.30;99.90
53274;DHT22;39163;52.696;6.758;2024-02-26T07:37:39;4.30;99.90
53274;DHT22;39163;52.696;6.758;2024-02-26T07:40:07;4.30;99.90
53274;DHT22;39163;52.696;6.758;2024-02-26T07:42:34;4.40;99.90
53274;DHT22;39163;52.696;6.758;2024-02-26T07:45:02;4.40;99.90
53274;DHT22;39163;52.696;6.758;2024-02-26T07:47:30;4.40;99.90
53274;DHT22;39163;52.696;6.758;2024-02-26T07:50:00;4.40;99.90
53274;DHT22;39163;52.696;6.758;2024-02-26T07:52:27;4.40;99.90
53274;DHT22;39163;52.696;6.758;2024-02-26T07:54:54;4.40;99.90
53274;DHT22;39163;52.696;6.758;2024-02-26T07:57:21;4.50;99.90
53274;DHT22;39163;52.696;6.758;2024-02-26T07:59:48;4.50;99.90
53274;DHT22;39163;52.696;6.758;2024-02-26T08:02:15;4.50;99.90
53274;DHT22;39163;52.696;6.758;2024-02-26T08:04:43;4.50;99.90
53274;DHT22;39163;52.696;6.758;2024-02-26T08:07:10;4.50;99.90
53274;DHT22;39163;52.696;6.758;2024-02-26T08:09:37;4.60;99.90
53274;DHT22;39163;52.696;6.758;2024-02-26T08:12:05;4.60;99.90
53274;DHT22;39163;52.696;6.758;2024-02-26T08:14:32;4.60;99.90
53274;DHT22;39163;52.696;6.758;2024-02-26T08:16:59;4.60;99.90
53274;DHT22;39163;52.696;6.758;2024-02-26T08:19:26;4.60;99.90
53274;DHT22;39163;52.696;6.758;2024-02-26T08:21:55;4.70;99.90
53274;DHT22;39163;52.696;6.758;2024-02-26T08:24:22;4.70;99.90
53274;DHT22;39163;52.696;6.758;2024-02-26T08:26:49;4.70;99.90
53274;DHT22;39163;52.696;6.758;2024-02-26T08:29:16;4.70;99.90
53274;DHT22;39163;52.696;6.758;2024-02-26T08:31:43;4.80;99.90
53274;DHT22;39163;52.696;6.758;2024-02-26T08:34:10;4.80;99.90
53274;DHT22;39163;52.696;6.758;2024-02-26T08:36:37;4.80;99.90
53274;DHT22;39163;52.696;6.758;2024-02-26T08:39:05;4.80;99.90
53274;DHT22;39163;52.696;6.758;2024-02-26T08:41:32;4.80;99.90
53274;DHT22;39163;52.696;6.758;2024-02-26T08:43:59;4.80;99.90
53274;DHT22;39163;52.696;6.758;2024-02-26T08:46:27;4.80;99.90
53274;DHT22;39163;52.696;6.758;2024-02-26T08:48:54;4.80;99.90
53274;DHT22;39163;52.696;6.758;2024-02-26T08:51:21;4.90;99.90
53274;DHT22;39163;52.696;6.758;2024-02-26T08:53:47;4.90;99.90
53274;DHT22;39163;52.696;6.758;2024-02-26T08:56:16;4.90;99.90
53274;DHT22;39163;52.696;6.758;2024-02-26T08:58:44;4.90;99.90
53274;DHT22;39163;52.696;6.758;2024-02-26T09:01:12;4.90;99.90
53274;DHT22;39163;52.696;6.758;2024-02-26T09:03:38;4.90;99.90
53274;DHT22;39163;52.696;6.758;2024-02-26T09:06:05;4.90;99.90
53274;DHT22;39163;52.696;6.758;2024-02-26T09:08:33;5.00;99.90
53274;DHT22;39163;52.696;6.758;2024-02-26T09:11:01;5.00;99.90
53274;DHT22;39163;52.696;6.758;2024-02-26T09:13:30;5.00;99.90
53274;DHT22;39163;52.696;6.758;2024-02-26T09:15:57;5.00;99.90
53274;DHT22;39163;52.696;6.758;2024-02-26T09:18:24;5.00;99.90
53274;DHT22;39163;52.696;6.758;2024-02-26T09:20:51;5.00;99.90
53274;DHT22;39163;52.696;6.758;2024-02-26T09:23:18;5.00;99.90
53274;DHT22;39163;52.696;6.758;2024-02-26T09:25:45;5.00;99.90
53274;DHT22;39163;52.696;6.758;2024-02-26T09:28:12;5.10;99.90
53274;DHT22;39163;52.696;6.758;2024-02-26T09:30:42;5.10;99.90
53274;DHT22;39163;52.696;6.758;2024-02-26T09:33:09;5.10;99.90
53274;DHT22;39163;52.696;6.758;2024-02-26T09:35:37;5.10;99.90
53274;DHT22;39163;52.696;6.758;2024-02-26T09:38:04;5.20;99.90
53274;DHT22;39163;52.696;6.758;2024-02-26T09:40:31;5.20;99.90
53274;DHT22;39163;52.696;6.758;2024-02-26T09:43:00;5.20;99.90
53274;DHT22;39163;52.696;6.758;2024-02-26T09:45:28;5.20;99.90
53274;DHT22;39163;52.696;6.758;2024-02-26T09:47:59;5.20;99.90
53274;DHT22;39163;52.696;6.758;2024-02-26T09:50:27;5.30;99.90
53274;DHT22;39163;52.696;6.758;2024-02-26T09:52:54;5.30;99.90
53274;DHT22;39163;52.696;6.758;2024-02-26T09:55:23;5.30;99.90
53274;DHT22;39163;52.696;6.758;2024-02-26T09:57:51;5.40;99.90
53274;DHT22;39163;52.696;6.758;2024-02-26T10:00:20;5.40;99.90
53274;DHT22;39163;52.696;6.758;2024-02-26T10:02:48;5.50;99.90
53274;DHT22;39163;52.696;6.758;2024-02-26T10:05:17;5.50;99.90
53274;DHT22;39163;52.696;6.758;2024-02-26T10:07:44;5.50;99.90
53274;DHT22;39163;52.696;6.758;2024-02-26T10:10:12;5.50;99.90
53274;DHT22;39163;52.696;6.758;2024-02-26T10:12:39;5.60;99.90
53274;DHT22;39163;52.696;6.758;2024-02-26T10:15:07;5.60;99.90
53274;DHT22;39163;52.696;6.758;2024-02-26T10:17:34;5.60;99.90
53274;DHT22;39163;52.696;6.758;2024-02-26T10:20:11;5.60;99.90
53274;DHT22;39163;52.696;6.758;2024-02-26T10:22:40;5.70;99.90
53274;DHT22;39163;52.696;6.758;2024-02-26T10:25:08;5.80;99.90
53274;DHT22;39163;52.696;6.758;2024-02-26T10:27:35;5.90;99.90
53274;DHT22;39163;52.696;6.758;2024-02-26T10:30:03;5.90;99.90
53274;DHT22;39163;52.696;6.758;2024-02-26T10:32:30;6.00;99.90
53274;DHT22;39163;52.696;6.758;2024-02-26T10:34:58;6.10;99.90
53274;DHT22;39163;52.696;6.758;2024-02-26T10:37:24;6.10;99.90
53274;DHT22;39163;52.696;6.758;2024-02-26T10:39:53;6.20;99.90
53274;DHT22;39163;52.696;6.758;2024-02-26T10:42:20;6.30;99.90
53274;DHT22;39163;52.696;6.758;2024-02-26T10:44:47;6.30;99.90
53274;DHT22;39163;52.696;6.758;2024-02-26T10:47:15;6.30;99.90
53274;DHT22;39163;52.696;6.758;2024-02-26T10:49:46;6.40;99.90
53274;DHT22;39163;52.696;6.758;2024-02-26T10:52:14;6.40;99.90
53274;DHT22;39163;52.696;6.758;2024-02-26T10:54:42;6.40;99.90
53274;DHT22;39163;52.696;6.758;2024-02-26T10:57:14;6.50;99.90
53274;DHT22;39163;52.696;6.758;2024-02-26T10:59:42;6.50;99.90
53274;DHT22;39163;52.696;6.758;2024-02-26T11:02:10;6.50;99.90
53274;DHT22;39163;52.696;6.758;2024-02-26T11:04:38;6.60;99.90
53274;DHT22;39163;52.696;6.758;2024-02-26T11:07:06;6.60;99.90
53274;DHT22;39163;52.696;6.758;2024-02-26T11:09:34;6.70;99.90
53274;DHT22;39163;52.696;6.758;2024-02-26T11:12:02;6.80;99.90
53274;DHT22;39163;52.696;6.758;2024-02-26T11:14:38;6.80;99.90
53274;DHT22;39163;52.696;6.758;2024-02-26T11:17:07;6.90;99.90
53274;DHT22;39163;52.696;6.758;2024-02-26T11:19:36;7.00;99.90
53274;DHT22;39163;52.696;6.758;2024-02-26T11:22:03;7.00;99.90
53274;DHT22;39163;52.696;6.758;2024-02-26T11:24:30;7.00;99.90
53274;DHT22;39163;52.696;6.758;2024-02-26T11:26:59;7.10;99.90
53274;DHT22;39163;52.696;6.758;2024-02-26T11:29:32;7.10;99.90
53274;DHT22;39163;52.696;6.758;2024-02-26T11:32:02;7.10;99.90
53274;DHT22;39163;52.696;6.758;2024-02-26T11:34:30;7.10;99.90
53274;DHT22;39163;52.696;6.758;2024-02-26T11:36:57;7.00;99.90
53274;DHT22;39163;52.696;6.758;2024-02-26T11:39:24;7.00;99.90
53274;DHT22;39163;52.696;6.758;2024-02-26T11:41:52;6.90;99.90
53274;DHT22;39163;52.696;6.758;2024-02-26T11:44:29;6.90;99.90
53274;DHT22;39163;52.696;6.758;2024-02-26T11:46:56;6.80;99.90
53274;DHT22;39163;52.696;6.758;2024-02-26T11:49:32;6.80;99.90
53274;DHT22;39163;52.696;6.758;2024-02-26T11:52:00;6.70;99.90
53274;DHT22;39163;52.696;6.758;2024-02-26T11:54:39;6.70;99.90
53274;DHT22;39163;52.696;6.758;2024-02-26T11:57:23;6.70;99.90
53274;DHT22;39163;52.696;6.758;2024-02-26T11:59:50;6.70;99.90
53274;DHT22;39163;52.696;6.758;2024-02-26T12:02:40;6.60;99.90
53274;DHT22;39163;52.696;6.758;2024-02-26T12:05:10;6.60;99.90
53274;DHT22;39163;52.696;6.758;2024-02-26T12:07:40;6.60;99.90
53274;DHT22;39163;52.696;6.758;2024-02-26T12:10:22;6.60;99.90
53274;DHT22;39163;52.696;6.758;2024-02-26T12:12:54;6.60;99.90
53274;DHT22;39163;52.696;6.758;2024-02-26T12:15:23;6.60;99.90
53274;DHT22;39163;52.696;6.758;2024-02-26T12:17:52;6.60;99.90
53274;DHT22;39163;52.696;6.758;2024-02-26T12:20:21;6.60;99.90
53274;DHT22;39163;52.696;6.758;2024-02-26T12:22:50;6.60;99.90
53274;DHT22;39163;52.696;6.758;2024-02-26T12:25:21;6.60;99.90
53274;DHT22;39163;52.696;6.758;2024-02-26T12:27:48;6.60;99.90
53274;DHT22;39163;52.696;6.758;2024-02-26T12:30:15;6.60;99.90
53274;DHT22;39163;52.696;6.758;2024-02-26T12:32:42;6.60;99.90
53274;DHT22;39163;52.696;6.758;2024-02-26T12:35:09;6.60;99.90
53274;DHT22;39163;52.696;6.758;2024-02-26T12:37:38;6.60;99.90
53274;DHT22;39163;52.696;6.758;2024-02-26T12:40:06;6.60;99.90
53274;DHT22;39163;52.696;6.758;2024-02-26T12:42:36;6.50;99.90
53274;DHT22;39163;52.696;6.758;2024-02-26T12:45:06;6.60;99.90
53274;DHT22;39163;52.696;6.758;2024-02-26T12:47:36;6.60;99.90
53274;DHT22;39163;52.696;6.758;2024-02-26T12:50:03;6.60;99.90
53274;DHT22;39163;52.696;6.758;2024-02-26T12:52:31;6.60;99.90
53274;DHT22;39163;52.696;6.758;2024-02-26T12:55:01;6.60;99.90
53274;DHT22;39163;52.696;6.758;2024-02-26T12:57:30;6.60;99.90
53274;DHT22;39163;52.696;6.758;2024-02-26T12:59:57;6.60;99.90
53274;DHT22;39163;52.696;6.758;2024-02-26T13:02:25;6.60;99.90
53274;DHT22;39163;52.696;6.758;2024-02-26T13:04:53;6.60;99.90
53274;DHT22;39163;52.696;6.758;2024-02-26T13:07:20;6.60;99.90
53274;DHT22;39163;52.696;6.758;2024-02-26T13:09:48;6.60;99.90
53274;DHT22;39163;52.696;6.758;2024-02-26T13:12:17;6.60;99.90
53274;DHT22;39163;52.696;6.758;2024-02-26T13:14:44;6.60;99.90
53274;DHT22;39163;52.696;6.758;2024-02-26T13:17:11;6.70;99.90
53274;DHT22;39163;52.696;6.758;2024-02-26T13:19:48;6.70;99.90
53274;DHT22;39163;52.696;6.758;2024-02-26T13:22:15;6.60;99.90
53274;DHT22;39163;52.696;6.758;2024-02-26T13:24:42;6.60;99.90
53274;DHT22;39163;52.696;6.758;2024-02-26T13:27:09;6.60;99.90
53274;DHT22;39163;52.696;6.758;2024-02-26T13:29:38;6.70;99.90
53274;DHT22;39163;52.696;6.758;2024-02-26T13:32:05;6.70;99.90
53274;DHT22;39163;52.696;6.758;2024-02-26T13:34:32;6.70;99.90
53274;DHT22;39163;52.696;6.758;2024-02-26T13:37:01;6.70;99.90
53274;DHT22;39163;52.696;6.758;2024-02-26T13:39:28;6.70;99.90
53274;DHT22;39163;52.696;6.758;2024-02-26T13:41:56;6.80;99.90
53274;DHT22;39163;52.696;6.758;2024-02-26T13:44:23;6.80;99.90
53274;DHT22;39163;52.696;6.758;2024-02-26T13:46:53;6.80;99.90
53274;DHT22;39163;52.696;6.758;2024-02-26T13:49:19;6.90;99.90
53274;DHT22;39163;52.696;6.758;2024-02-26T13:51:46;6.90;99.90
53274;DHT22;39163;52.696;6.758;2024-02-26T13:54:13;6.80;99.90
53274;DHT22;39163;52.696;6.758;2024-02-26T13:56:40;6.80;99.90
53274;DHT22;39163;52.696;6.758;2024-02-26T13:59:07;6.80;99.90
53274;DHT22;39163;52.696;6.758;2024-02-26T14:01:34;6.90;99.90
53274;DHT22;39163;52.696;6.758;2024-02-26T14:04:03;6.90;99.90
53274;DHT22;39163;52.696;6.758;2024-02-26T14:06:30;6.90;99.90
53274;DHT22;39163;52.696;6.758;2024-02-26T14:08:57;6.90;99.90
53274;DHT22;39163;52.696;6.758;2024-02-26T14:11:24;6.90;99.90
53274;DHT22;39163;52.696;6.758;2024-02-26T14:13:54;6.90;99.90
53274;DHT22;39163;52.696;6.758;2024-02-26T14:16:21;6.90;99.90
53274;DHT22;39163;52.696;6.758;2024-02-26T14:18:48;6.90;99.90
53274;DHT22;39163;52.696;6.758;2024-02-26T14:21:16;6.80;99.90
53274;DHT22;39163;52.696;6.758;2024-02-26T14:23:43;6.80;99.90
53274;DHT22;39163;52.696;6.758;2024-02-26T14:26:11;6.80;99.90
53274;DHT22;39163;52.696;6.758;2024-02-26T14:28:38;6.70;99.90
53274;DHT22;39163;52.696;6.758;2024-02-26T14:31:06;6.80;99.90
53274;DHT22;39163;52.696;6.758;2024-02-26T14:33:37;6.70;99.90
53274;DHT22;39163;52.696;6.758;2024-02-26T14:36:06;6.70;99.90
53274;DHT22;39163;52.696;6.758;2024-02-26T14:38:35;6.70;99.90
53274;DHT22;39163;52.696;6.758;2024-02-26T14:41:02;6.70;99.90
53274;DHT22;39163;52.696;6.758;2024-02-26T14:43:29;6.70;99.90
53274;DHT22;39163;52.696;6.758;2024-02-26T14:45:58;6.70;99.90
53274;DHT22;39163;52.696;6.758;2024-02-26T14:48:25;6.70;99.90
53274;DHT22;39163;52.696;6.758;2024-02-26T14:50:52;6.60;99.90
53274;DHT22;39163;52.696;6.758;2024-02-26T14:53:19;6.60;99.90
53274;DHT22;39163;52.696;6.758;2024-02-26T14:55:47;6.60;99.90
53274;DHT22;39163;52.696;6.758;2024-02-26T14:58:15;6.50;99.90
53274;DHT22;39163;52.696;6.758;2024-02-26T15:00:42;6.50;99.90
53274;DHT22;39163;52.696;6.758;2024-02-26T15:03:09;6.50;99.90
53274;DHT22;39163;52.696;6.758;2024-02-26T15:05:36;6.50;99.90
53274;DHT22;39163;52.696;6.758;2024-02-26T15:08:03;6.40;99.90
53274;DHT22;39163;52.696;6.758;2024-02-26T15:10:31;6.40;99.90
53274;DHT22;39163;52.696;6.758;2024-02-26T15:12:59;6.40;99.90
53274;DHT22;39163;52.696;6.758;2024-02-26T15:15:26;6.40;99.90
53274;DHT22;39163;52.696;6.758;2024-02-26T15:17:53;6.30;99.90
53274;DHT22;39163;52.696;6.758;2024-02-26T15:20:21;6.30;99.90
53274;DHT22;39163;52.696;6.758;2024-02-26T15:22:48;6.30;99.90
53274;DHT22;39163;52.696;6.758;2024-02-26T15:25:15;6.30;99.90
53274;DHT22;39163;52.696;6.758;2024-02-26T15:27:43;6.20;99.90
53274;DHT22;39163;52.696;6.758;2024-02-26T15:30:12;6.20;99.90
53274;DHT22;39163;52.696;6.758;2024-02-26T15:32:39;6.20;99.90
53274;DHT22;39163;52.696;6.758;2024-02-26T15:35:07;6.20;99.90
53274;DHT22;39163;52.696;6.758;2024-02-26T15:37:34;6.10;99.90
53274;DHT22;39163;52.696;6.758;2024-02-26T15:40:01;6.10;99.90
53274;DHT22;39163;52.696;6.758;2024-02-26T15:42:32;6.10;99.90
53274;DHT22;39163;52.696;6.758;2024-02-26T15:44:59;6.10;99.90
53274;DHT22;39163;52.696;6.758;2024-02-26T15:47:27;6.00;99.90